Time,TemperatureF,DewpointF,PressureIn,WindDirection,WindDirectionDegrees,WindSpeedMPH,WindSpeedGustMPH,Humidity,HourlyPrecipIn,Conditions,Clouds,dailyrainin,SoftwareType,DateUTC
2013-07-31 00:13:00,66.0,62.0,30.05,North,4,0.0,0.0,88,0.00,,,0.00,weatherlink.com 1.10,2013-07-31 04:13:00,
2013-07-31 00:28:00,64.9,62.0,30.05,North,4,0.0,1.0,90,0.00,,,0.00,weatherlink.com 1.10,2013-07-31 04:28:00,
2013-07-31 00:43:00,64.3,62.0,30.05,North,4,0.0,0.0,91,0.00,,,0.00,weatherlink.com 1.10,2013-07-31 04:43:00,
2013-07-31 00:58:00,64.1,62.0,30.05,North,4,0.0,0.0,92,0.00,,,0.00,weatherlink.com 1.10,2013-07-31 04:58:00,
2013-07-31 01:13:00,64.1,61.0,30.04,North,4,0.0,1.0,90,0.00,,,0.00,weatherlink.com 1.10,2013-07-31 05:13:00,
2013-07-31 01:28:00,64.4,61.0,30.05,NW,315,0.0,1.0,89,0.00,,,0.00,weatherlink.com 1.10,2013-07-31 05:28:00,
2013-07-31 01:43:00,64.3,61.0,30.04,NW,315,0.0,1.0,89,0.00,,,0.00,weatherlink.com 1.10,2013-07-31 05:43:00,
2013-07-31 01:58:00,64.3,61.0,30.05,NW,315,0.0,1.0,89,0.00,,,0.00,weatherlink.com 1.10,2013-07-31 05:58:00,
2013-07-31 02:13:00,64.1,62.0,30.05,NW,314,0.0,1.0,91,0.00,,,0.00,weatherlink.com 1.10,2013-07-31 06:13:00,
2013-07-31 02:28:00,63.0,61.0,30.05,NW,315,0.0,1.0,93,0.00,,,0.00,weatherlink.com 1.10,2013-07-31 06:28:00,
2013-07-31 02:43:00,62.0,60.0,30.05,NW,315,0.0,1.0,94,0.00,,,0.00,weatherlink.com 1.10,2013-07-31 06:43:00,
2013-07-31 02:58:00,61.7,60.0,30.05,NW,314,0.0,1.0,95,0.00,,,0.00,weatherlink.com 1.10,2013-07-31 06:58:00,
2013-07-31 03:13:00,61.4,60.0,30.05,NW,315,1.0,1.0,96,0.00,,,0.00,weatherlink.com 1.10,2013-07-31 07:13:00,
2013-07-31 03:28:00,61.0,60.0,30.05,NW,314,1.0,1.0,96,0.00,,,0.00,weatherlink.com 1.10,2013-07-31 07:28:00,
2013-07-31 03:43:00,60.5,60.0,30.05,NW,315,0.0,1.0,97,0.00,,,0.00,weatherlink.com 1.10,2013-07-31 07:43:00,
2013-07-31 03:58:00,60.4,60.0,30.06,NW,315,0.0,1.0,97,0.00,,,0.00,weatherlink.com 1.10,2013-07-31 07:58:00,
2013-07-31 04:13:00,60.0,59.0,30.06,NW,315,0.0,0.0,97,0.00,,,0.00,weatherlink.com 1.10,2013-07-31 08:13:00,
2013-07-31 04:28:00,59.8,59.0,30.06,NW,315,0.0,1.0,97,0.00,,,0.00,weatherlink.com 1.10,2013-07-31 08:28:00,
2013-07-31 04:43:00,59.7,59.0,30.06,NW,315,0.0,1.0,97,0.00,,,0.00,weatherlink.com 1.10,2013-07-31 08:43:00,
2013-07-31 04:58:00,59.7,59.0,30.07,NW,315,0.0,1.0,97,0.00,,,0.00,weatherlink.com 1.10,2013-07-31 08:58:00,
2013-07-31 05:13:00,59.6,59.0,30.07,NW,315,0.0,1.0,98,0.00,,,0.00,weatherlink.com 1.10,2013-07-31 09:13:00,
2013-07-31 05:28:00,59.5,59.0,30.07,NW,315,0.0,1.0,98,0.00,,,0.00,weatherlink.com 1.10,2013-07-31 09:28:00,
2013-07-31 05:43:00,59.7,59.0,30.08,NW,315,0.0,1.0,98,0.00,,,0.00,weatherlink.com 1.10,2013-07-31 09:43:00,
2013-07-31 05:58:00,59.9,59.0,30.08,NW,314,0.0,1.0,97,0.00,,,0.00,weatherlink.com 1.10,2013-07-31 09:58:00,
2013-07-31 06:13:00,59.7,59.0,30.09,ESE,115,0.0,1.0,97,0.00,,,0.00,weatherlink.com 1.10,2013-07-31 10:13:00,
2013-07-31 06:28:00,60.0,59.0,30.09,ESE,115,0.0,0.0,97,0.00,,,0.00,weatherlink.com 1.10,2013-07-31 10:28:00,
2013-07-31 06:43:00,60.5,60.0,30.10,ESE,115,0.0,0.0,97,0.00,,,0.00,weatherlink.com 1.10,2013-07-31 10:43:00,
2013-07-31 06:58:00,61.6,61.0,30.11,ESE,116,0.0,0.0,96,0.00,,,0.00,weatherlink.com 1.10,2013-07-31 10:58:00,
2013-07-31 07:13:00,63.2,62.0,30.10,ESE,115,0.0,0.0,94,0.00,,,0.00,weatherlink.com 1.10,2013-07-31 11:13:00,
2013-07-31 07:28:00,64.6,62.0,30.11,ESE,115,0.0,1.0,91,0.00,,,0.00,weatherlink.com 1.10,2013-07-31 11:28:00,
2013-07-31 07:44:00,65.8,63.0,30.11,ESE,116,0.0,1.0,90,0.00,,,0.00,weatherlink.com 1.10,2013-07-31 11:44:00,
2013-07-31 07:59:00,67.2,63.0,30.10,SE,127,1.0,2.0,86,0.00,,,0.00,weatherlink.com 1.10,2013-07-31 11:59:00,
2013-07-31 08:14:00,68.8,62.0,30.11,ENE,61,0.0,3.0,80,0.00,,,0.00,weatherlink.com 1.10,2013-07-31 12:14:00,
2013-07-31 08:29:00,70.1,64.0,30.11,SW,214,0.0,2.0,80,0.00,,,0.00,weatherlink.com 1.10,2013-07-31 12:29:00,
2013-07-31 08:44:00,71.0,62.0,30.11,East,98,0.0,3.0,74,0.00,,,0.00,weatherlink.com 1.10,2013-07-31 12:44:00,
2013-07-31 08:59:00,71.8,64.0,30.11,NNW,346,2.0,2.0,75,0.00,,,0.00,weatherlink.com 1.10,2013-07-31 12:59:00,
2013-07-31 09:14:00,72.5,63.0,30.11,East,84,1.0,3.0,71,0.00,,,0.00,weatherlink.com 1.10,2013-07-31 13:14:00,
2013-07-31 09:29:00,72.9,63.0,30.10,NNW,344,0.0,2.0,70,0.00,,,0.00,weatherlink.com 1.10,2013-07-31 13:29:00,
2013-07-31 09:44:00,73.5,62.0,30.10,ESE,117,1.0,4.0,68,0.00,,,0.00,weatherlink.com 1.10,2013-07-31 13:44:00,
2013-07-31 09:59:00,74.0,63.0,30.10,NNE,30,0.0,4.0,68,0.00,,,0.00,weatherlink.com 1.10,2013-07-31 13:59:00,
2013-07-31 10:14:00,74.5,61.0,30.09,NNW,334,0.0,3.0,62,0.00,,,0.00,weatherlink.com 1.10,2013-07-31 14:14:00,
2013-07-31 10:29:00,74.6,62.0,30.09,ESE,122,3.0,3.0,64,0.00,,,0.00,weatherlink.com 1.10,2013-07-31 14:29:00,
2013-07-31 10:44:00,75.5,61.0,30.09,NW,311,1.0,3.0,62,0.00,,,0.00,weatherlink.com 1.10,2013-07-31 14:44:00,
2013-07-31 10:59:00,75.8,61.0,30.08,ESE,103,1.0,1.0,61,0.00,,,0.00,weatherlink.com 1.10,2013-07-31 14:59:00,
2013-07-31 11:14:00,76.4,64.0,30.08,East,98,0.0,3.0,65,0.00,,,0.00,weatherlink.com 1.10,2013-07-31 15:14:00,
2013-07-31 11:29:00,76.3,59.0,30.08,North,5,0.0,2.0,56,0.00,,,0.00,weatherlink.com 1.10,2013-07-31 15:29:00,
2013-07-31 11:44:00,76.5,60.0,30.08,East,85,1.0,2.0,57,0.00,,,0.00,weatherlink.com 1.10,2013-07-31 15:44:00,
2013-07-31 11:59:00,77.6,61.0,30.07,ESE,102,0.0,1.0,57,0.00,,,0.00,weatherlink.com 1.10,2013-07-31 15:59:00,
2013-07-31 12:14:00,78.3,62.0,30.07,SE,127,0.0,1.0,57,0.00,,,0.00,weatherlink.com 1.10,2013-07-31 16:14:00,
2013-07-31 12:29:00,78.4,62.0,30.07,North,352,0.0,2.0,57,0.00,,,0.00,weatherlink.com 1.10,2013-07-31 16:29:00,
2013-07-31 12:44:00,78.3,60.0,30.06,SW,222,0.0,2.0,54,0.00,,,0.00,weatherlink.com 1.10,2013-07-31 16:44:00,
2013-07-31 12:59:00,78.3,61.0,30.06,ENE,71,0.0,2.0,55,0.00,,,0.00,weatherlink.com 1.10,2013-07-31 16:59:00,
2013-07-31 13:14:00,78.8,61.0,30.06,SW,217,1.0,1.0,55,0.00,,,0.00,weatherlink.com 1.10,2013-07-31 17:14:00,
2013-07-31 13:29:00,77.5,64.0,30.06,SW,221,0.0,1.0,63,0.00,,,0.00,weatherlink.com 1.10,2013-07-31 17:29:00,
2013-07-31 13:44:00,77.7,62.0,30.06,NW,316,0.0,1.0,59,0.00,,,0.00,weatherlink.com 1.10,2013-07-31 17:44:00,
2013-07-31 13:59:00,78.6,62.0,30.05,North,8,0.0,3.0,57,0.00,,,0.00,weatherlink.com 1.10,2013-07-31 17:59:00,
2013-07-31 14:14:00,79.1,63.0,30.05,East,83,0.0,1.0,59,0.00,,,0.00,weatherlink.com 1.10,2013-07-31 18:14:00,
2013-07-31 14:29:00,80.2,63.0,30.05,East,85,0.0,1.0,57,0.00,,,0.00,weatherlink.com 1.10,2013-07-31 18:29:00,
2013-07-31 14:44:00,80.9,64.0,30.05,WSW,246,1.0,2.0,56,0.00,,,0.00,weatherlink.com 1.10,2013-07-31 18:44:00,
2013-07-31 14:59:00,82.0,64.0,30.05,SE,143,0.0,1.0,55,0.00,,,0.00,weatherlink.com 1.10,2013-07-31 18:59:00,
2013-07-31 15:15:00,81.7,64.0,30.04,ENE,74,0.0,1.0,55,0.00,,,0.00,weatherlink.com 1.10,2013-07-31 19:15:00,
2013-07-31 15:30:00,80.9,64.0,30.04,WSW,249,0.0,1.0,57,0.00,,,0.00,weatherlink.com 1.10,2013-07-31 19:30:00,
2013-07-31 15:45:00,78.8,62.0,30.04,WSW,249,0.0,1.0,56,0.00,,,0.00,weatherlink.com 1.10,2013-07-31 19:45:00,
2013-07-31 16:00:00,79.4,64.0,30.04,SW,229,0.0,1.0,59,0.00,,,0.00,weatherlink.com 1.10,2013-07-31 20:00:00,
2013-07-31 16:15:00,78.8,65.0,30.03,SW,230,0.0,1.0,62,0.00,,,0.00,weatherlink.com 1.10,2013-07-31 20:15:00,
2013-07-31 16:30:00,78.2,64.0,30.03,SW,229,0.0,1.0,62,0.00,,,0.00,weatherlink.com 1.10,2013-07-31 20:30:00,
2013-07-31 16:45:00,77.2,65.0,30.02,SW,229,0.0,0.0,65,0.00,,,0.00,weatherlink.com 1.10,2013-07-31 20:45:00,
2013-07-31 17:00:00,76.6,66.0,30.02,SW,229,0.0,1.0,69,0.00,,,0.00,weatherlink.com 1.10,2013-07-31 21:00:00,
2013-07-31 17:15:00,75.8,65.0,30.02,SW,229,0.0,0.0,69,0.00,,,0.00,weatherlink.com 1.10,2013-07-31 21:15:00,
2013-07-31 17:30:00,75.9,65.0,30.02,SW,229,0.0,0.0,69,0.00,,,0.00,weatherlink.com 1.10,2013-07-31 21:30:00,
2013-07-31 17:45:00,75.9,64.0,30.02,SW,228,0.0,1.0,66,0.00,,,0.00,weatherlink.com 1.10,2013-07-31 21:45:00,
2013-07-31 18:00:00,75.4,63.0,30.02,SW,229,0.0,0.0,66,0.00,,,0.00,weatherlink.com 1.10,2013-07-31 22:00:00,
2013-07-31 18:15:00,74.8,65.0,30.02,SW,228,0.0,0.0,72,0.00,,,0.00,weatherlink.com 1.10,2013-07-31 22:15:00,
2013-07-31 18:30:00,74.4,67.0,30.02,SW,229,0.0,0.0,77,0.00,,,0.00,weatherlink.com 1.10,2013-07-31 22:30:00,
2013-07-31 18:45:00,73.9,67.0,30.02,SW,228,0.0,0.0,79,0.00,,,0.00,weatherlink.com 1.10,2013-07-31 22:45:00,
2013-07-31 19:00:00,73.3,66.0,30.02,SW,228,0.0,0.0,79,0.00,,,0.00,weatherlink.com 1.10,2013-07-31 23:00:00,
2013-07-31 19:15:00,73.0,67.0,30.01,SW,228,0.0,0.0,81,0.00,,,0.00,weatherlink.com 1.10,2013-07-31 23:15:00,
2013-07-31 19:30:00,72.4,66.0,30.01,SW,228,0.0,0.0,80,0.00,,,0.00,weatherlink.com 1.10,2013-07-31 23:30:00,
2013-07-31 19:45:00,71.8,66.0,30.01,SW,227,0.0,0.0,83,0.00,,,0.00,weatherlink.com 1.10,2013-07-31 23:45:00,
2013-07-31 20:00:00,71.1,66.0,30.01,SW,228,0.0,0.0,85,0.00,,,0.00,weatherlink.com 1.10,2013-08-01 00:00:00,
2013-07-31 20:15:00,70.2,66.0,30.01,SW,227,0.0,0.0,86,0.00,,,0.00,weatherlink.com 1.10,2013-08-01 00:15:00,
2013-07-31 20:30:00,69.6,67.0,30.01,SW,228,0.0,0.0,90,0.00,,,0.00,weatherlink.com 1.10,2013-08-01 00:30:00,
2013-07-31 20:45:00,68.6,66.0,30.01,SW,228,0.0,0.0,91,0.00,,,0.00,weatherlink.com 1.10,2013-08-01 00:45:00,
2013-07-31 21:00:00,68.3,66.0,30.01,SW,228,0.0,0.0,92,0.00,,,0.00,weatherlink.com 1.10,2013-08-01 01:00:00,
2013-07-31 21:15:00,68.2,66.0,30.02,SW,228,0.0,0.0,93,0.00,,,0.00,weatherlink.com 1.10,2013-08-01 01:15:00,
2013-07-31 21:30:00,68.0,66.0,30.02,SW,227,0.0,0.0,93,0.00,,,0.00,weatherlink.com 1.10,2013-08-01 01:30:00,
2013-07-31 21:45:00,67.7,66.0,30.02,SW,228,0.0,1.0,94,0.00,,,0.00,weatherlink.com 1.10,2013-08-01 01:45:00,
2013-07-31 22:00:00,67.7,66.0,30.02,SW,228,0.0,1.0,94,0.00,,,0.00,weatherlink.com 1.10,2013-08-01 02:00:00,
2013-07-31 22:15:00,67.4,66.0,30.02,SW,228,0.0,1.0,94,0.00,,,0.00,weatherlink.com 1.10,2013-08-01 02:15:00,
2013-07-31 22:30:00,67.0,66.0,30.02,SW,228,0.0,0.0,95,0.00,,,0.00,weatherlink.com 1.10,2013-08-01 02:30:00,
2013-07-31 22:45:00,66.7,65.0,30.02,SW,228,0.0,1.0,95,0.00,,,0.00,weatherlink.com 1.10,2013-08-01 02:45:00,
2013-07-31 23:00:00,66.5,65.0,30.02,SW,228,0.0,0.0,96,0.00,,,0.00,weatherlink.com 1.10,2013-08-01 03:00:00,
2013-07-31 23:15:00,66.2,65.0,30.02,SW,228,0.0,1.0,95,0.00,,,0.00,weatherlink.com 1.10,2013-08-01 03:15:00,
2013-07-31 23:30:00,65.9,65.0,30.02,SW,228,0.0,1.0,96,0.00,,,0.00,weatherlink.com 1.10,2013-08-01 03:30:00,
2013-07-31 23:45:00,65.5,64.0,30.02,SW,228,0.0,0.0,96,0.00,,,0.00,weatherlink.com 1.10,2013-08-01 03:45:00,